sensor_id;sensor_type;location;lat;lon;timestamp;pressure;altitude;pressure_sealevel;temperature;humidity
17072;BME280;7731;50.720;6.912;2022-12-07T00:00:35;100220.31;;;3.94;100.00
17072;BME280;7731;50.720;6.912;2022-12-07T00:03:10;100227.31;;;3.83;100.00
17072;BME280;7731;50.720;6.912;2022-12-07T00:05:41;100237.44;;;3.86;100.00
17072;BME280;7731;50.720;6.912;2022-12-07T00:08:11;100234.94;;;3.83;100.00
17072;BME280;7731;50.720;6.912;2022-12-07T00:10:42;100233.03;;;3.92;100.00
17072;BME280;7731;50.720;6.912;2022-12-07T00:13:12;100231.63;;;3.79;100.00
17072;BME280;7731;50.720;6.912;2022-12-07T00:15:43;100238.25;;;3.86;100.00
17072;BME280;7731;50.720;6.912;2022-12-07T00:18:16;100230.78;;;3.79;100.00
17072;BME280;7731;50.720;6.912;2022-12-07T00:20:47;100235.09;;;3.75;100.00
17072;BME280;7731;50.720;6.912;2022-12-07T00:23:17;100234.91;;;3.84;100.00
17072;BME280;7731;50.720;6.912;2022-12-07T00:25:47;100234.06;;;3.84;100.00
17072;BME280;7731;50.720;6.912;2022-12-07T00:28:18;100228.44;;;3.69;100.00
17072;BME280;7731;50.720;6.912;2022-12-07T00:30:48;100220.81;;;3.69;100.00
17072;BME280;7731;50.720;6.912;2022-12-07T00:33:21;100226.06;;;3.60;100.00
17072;BME280;7731;50.720;6.912;2022-12-07T00:35:56;100218.44;;;3.60;100.00
17072;BME280;7731;50.720;6.912;2022-12-07T00:38:32;100224.13;;;3.71;100.00
17072;BME280;7731;50.720;6.912;2022-12-07T00:41:06;100211.22;;;3.82;100.00
17072;BME280;7731;50.720;6.912;2022-12-07T00:43:37;100208.03;;;3.72;100.00
17072;BME280;7731;50.720;6.912;2022-12-07T00:46:08;100201.09;;;3.81;100.00
17072;BME280;7731;50.720;6.912;2022-12-07T00:48:44;100199.97;;;3.94;100.00
17072;BME280;7731;50.720;6.912;2022-12-07T00:51:18;100199.03;;;4.37;100.00
17072;BME280;7731;50.720;6.912;2022-12-07T00:53:50;100199.91;;;3.97;100.00
17072;BME280;7731;50.720;6.912;2022-12-07T00:56:25;100206.66;;;3.98;100.00
17072;BME280;7731;50.720;6.912;2022-12-07T00:58:58;100200.63;;;4.02;100.00
17072;BME280;7731;50.720;6.912;2022-12-07T01:01:34;100201.06;;;4.23;100.00
17072;BME280;7731;50.720;6.912;2022-12-07T01:04:08;100197.41;;;3.96;100.00
17072;BME280;7731;50.720;6.912;2022-12-07T01:06:38;100197.75;;;4.18;100.00
17072;BME280;7731;50.720;6.912;2022-12-07T01:09:09;100193.06;;;3.99;100.00
17072;BME280;7731;50.720;6.912;2022-12-07T01:11:42;100184.44;;;4.06;100.00
17072;BME280;7731;50.720;6.912;2022-12-07T01:14:13;100189.25;;;3.81;100.00
17072;BME280;7731;50.720;6.912;2022-12-07T01:16:43;100197.47;;;3.92;100.00
17072;BME280;7731;50.720;6.912;2022-12-07T01:19:16;100197.56;;;3.88;100.00
17072;BME280;7731;50.720;6.912;2022-12-07T01:21:47;100197.38;;;3.97;100.00
17072;BME280;7731;50.720;6.912;2022-12-07T01:24:17;100191.81;;;3.80;100.00
17072;BME280;7731;50.720;6.912;2022-12-07T01:26:49;100205.06;;;3.94;100.00
17072;BME280;7731;50.720;6.912;2022-12-07T01:29:20;100206.06;;;3.85;100.00
17072;BME280;7731;50.720;6.912;2022-12-07T01:31:52;100211.16;;;3.85;100.00
17072;BME280;7731;50.720;6.912;2022-12-07T01:34:25;100208.31;;;3.99;100.00
17072;BME280;7731;50.720;6.912;2022-12-07T01:36:55;100215.53;;;3.79;100.00
17072;BME280;7731;50.720;6.912;2022-12-07T01:39:28;100211.59;;;3.64;100.00
17072;BME280;7731;50.720;6.912;2022-12-07T01:41:58;100212.38;;;3.67;100.00
17072;BME280;7731;50.720;6.912;2022-12-07T01:44:30;100211.66;;;3.61;100.00
17072;BME280;7731;50.720;6.912;2022-12-07T01:47:03;100211.75;;;3.56;100.00
17072;BME280;7731;50.720;6.912;2022-12-07T01:49:40;100206.66;;;3.56;100.00
17072;BME280;7731;50.720;6.912;2022-12-07T01:52:20;100212.38;;;3.67;100.00
17072;BME280;7731;50.720;6.912;2022-12-07T01:55:00;100213.84;;;3.78;100.00
17072;BME280;7731;50.720;6.912;2022-12-07T01:57:35;100213.19;;;3.69;100.00
17072;BME280;7731;50.720;6.912;2022-12-07T02:00:12;100197.00;;;3.73;100.00
17072;BME280;7731;50.720;6.912;2022-12-07T02:02:48;100201.34;;;3.68;100.00
17072;BME280;7731;50.720;6.912;2022-12-07T02:05:25;100201.72;;;3.92;100.00
17072;BME280;7731;50.720;6.912;2022-12-07T02:07:59;100197.59;;;3.86;100.00
17072;BME280;7731;50.720;6.912;2022-12-07T02:10:31;100196.41;;;3.61;100.00
17072;BME280;7731;50.720;6.912;2022-12-07T02:13:09;100194.66;;;3.64;100.00
17072;BME280;7731;50.720;6.912;2022-12-07T02:16:14;100185.34;;;3.63;100.00
17072;BME280;7731;50.720;6.912;2022-12-07T02:19:06;100181.63;;;3.81;100.00
17072;BME280;7731;50.720;6.912;2022-12-07T02:21:54;100186.72;;;3.80;100.00
17072;BME280;7731;50.720;6.912;2022-12-07T02:24:48;100178.03;;;3.90;100.00
17072;BME280;7731;50.720;6.912;2022-12-07T02:27:39;100177.47;;;4.15;100.00
17072;BME280;7731;50.720;6.912;2022-12-07T02:30:16;100171.25;;;4.28;100.00
17072;BME280;7731;50.720;6.912;2022-12-07T02:32:56;100181.13;;;4.04;100.00
17072;BME280;7731;50.720;6.912;2022-12-07T02:35:39;100172.81;;;3.96;100.00
17072;BME280;7731;50.720;6.912;2022-12-07T02:38:18;100176.31;;;3.92;100.00
17072;BME280;7731;50.720;6.912;2022-12-07T02:40:55;100178.03;;;3.90;100.00
17072;BME280;7731;50.720;6.912;2022-12-07T02:43:32;100182.97;;;3.96;100.00
17072;BME280;7731;50.720;6.912;2022-12-07T02:46:10;100179.84;;;3.85;100.00
17072;BME280;7731;50.720;6.912;2022-12-07T02:48:45;100176.53;;;3.81;100.00
17072;BME280;7731;50.720;6.912;2022-12-07T02:51:18;100172.31;;;3.80;100.00
17072;BME280;7731;50.720;6.912;2022-12-07T02:53:48;100177.34;;;3.82;100.00
17072;BME280;7731;50.720;6.912;2022-12-07T02:56:34;100178.22;;;3.81;100.00
17072;BME280;7731;50.720;6.912;2022-12-07T02:59:19;100169.66;;;3.85;100.00
17072;BME280;7731;50.720;6.912;2022-12-07T03:02:10;100166.19;;;3.89;100.00
17072;BME280;7731;50.720;6.912;2022-12-07T03:05:07;100166.63;;;4.08;100.00
17072;BME280;7731;50.720;6.912;2022-12-07T03:07:54;100173.94;;;3.84;100.00
17072;BME280;7731;50.720;6.912;2022-12-07T03:10:38;100170.00;;;3.69;100.00
17072;BME280;7731;50.720;6.912;2022-12-07T03:13:17;100172.88;;;3.93;100.00
17072;BME280;7731;50.720;6.912;2022-12-07T03:15:58;100165.50;;;3.81;100.00
17072;BME280;7731;50.720;6.912;2022-12-07T03:18:39;100164.97;;;3.66;100.00
17072;BME280;7731;50.720;6.912;2022-12-07T03:21:21;100166.66;;;3.67;100.00
17072;BME280;7731;50.720;6.912;2022-12-07T03:24:00;100168.31;;;3.68;100.00
17072;BME280;7731;50.720;6.912;2022-12-07T03:26:39;100167.38;;;3.72;100.00
17072;BME280;7731;50.720;6.912;2022-12-07T03:29:16;100167.47;;;3.68;100.00
17072;BME280;7731;50.720;6.912;2022-12-07T03:31:51;100162.56;;;3.99;100.00
17072;BME280;7731;50.720;6.912;2022-12-07T03:34:35;100163.50;;;3.97;100.00
17072;BME280;7731;50.720;6.912;2022-12-07T03:37:14;100166.75;;;4.02;100.00
17072;BME280;7731;50.720;6.912;2022-12-07T03:39:58;100179.06;;;3.81;100.00
17072;BME280;7731;50.720;6.912;2022-12-07T03:42:33;100164.91;;;3.69;100.00
17072;BME280;7731;50.720;6.912;2022-12-07T03:45:09;100173.38;;;3.68;100.00
17072;BME280;7731;50.720;6.912;2022-12-07T03:47:48;100166.53;;;3.73;100.00
17072;BME280;7731;50.720;6.912;2022-12-07T03:50:32;100161.44;;;3.73;100.00
17072;BME280;7731;50.720;6.912;2022-12-07T03:53:15;100168.13;;;3.78;100.00
17072;BME280;7731;50.720;6.912;2022-12-07T03:55:50;100167.38;;;3.72;100.00
17072;BME280;7731;50.720;6.912;2022-12-07T03:58:23;100173.94;;;3.84;100.00
17072;BME280;7731;50.720;6.912;2022-12-07T04:00:55;100171.59;;;3.73;100.00
17072;BME280;7731;50.720;6.912;2022-12-07T04:03:26;100171.66;;;3.70;100.00
17072;BME280;7731;50.720;6.912;2022-12-07T04:06:00;100175.78;;;3.76;100.00
17072;BME280;7731;50.720;6.912;2022-12-07T04:08:31;100169.84;;;3.75;100.00
17072;BME280;7731;50.720;6.912;2022-12-07T04:11:01;100167.25;;;3.79;100.00
17072;BME280;7731;50.720;6.912;2022-12-07T04:13:32;100164.84;;;3.72;100.00
17072;BME280;7731;50.720;6.912;2022-12-07T04:16:23;100163.34;;;3.62;100.00
17072;BME280;7731;50.720;6.912;2022-12-07T04:18:54;100171.72;;;3.67;100.00
17072;BME280;7731;50.720;6.912;2022-12-07T04:21:27;100163.34;;;3.62;100.00
17072;BME280;7731;50.720;6.912;2022-12-07T04:24:01;100166.66;;;3.67;100.00
17072;BME280;7731;50.720;6.912;2022-12-07T04:26:31;100166.25;;;3.87;100.00
17072;BME280;7731;50.720;6.912;2022-12-07T04:29:02;100170.53;;;3.84;100.00
17072;BME280;7731;50.720;6.912;2022-12-07T04:31:34;100158.97;;;3.70;100.00
17072;BME280;7731;50.720;6.912;2022-12-07T04:34:06;100159.16;;;4.00;100.00
17072;BME280;7731;50.720;6.912;2022-12-07T04:36:40;100161.19;;;3.86;100.00
17072;BME280;7731;50.720;6.912;2022-12-07T04:39:20;100160.72;;;3.67;100.00
17072;BME280;7731;50.720;6.912;2022-12-07T04:41:50;100165.25;;;3.93;100.00
17072;BME280;7731;50.720;6.912;2022-12-07T04:44:22;100159.69;;;3.75;100.00
17072;BME280;7731;50.720;6.912;2022-12-07T04:46:54;100159.63;;;3.79;100.00
17072;BME280;7731;50.720;6.912;2022-12-07T04:49:28;100161.28;;;3.81;100.00
17072;BME280;7731;50.720;6.912;2022-12-07T04:52:01;100156.50;;;3.67;100.00
17072;BME280;7731;50.720;6.912;2022-12-07T04:54:34;100151.72;;;3.92;100.00
17072;BME280;7731;50.720;6.912;2022-12-07T04:57:04;100155.66;;;3.65;100.00
17072;BME280;7731;50.720;6.912;2022-12-07T04:59:34;100157.38;;;3.65;100.00
17072;BME280;7731;50.720;6.912;2022-12-07T05:02:11;100157.34;;;3.66;100.00
17072;BME280;7731;50.720;6.912;2022-12-07T05:04:41;100152.94;;;3.74;100.00
17072;BME280;7731;50.720;6.912;2022-12-07T05:07:14;100154.56;;;3.79;100.00
17072;BME280;7731;50.720;6.912;2022-12-07T05:09:45;100156.22;;;3.80;100.00
17072;BME280;7731;50.720;6.912;2022-12-07T05:12:15;100157.94;;;3.78;100.00
17072;BME280;7731;50.720;6.912;2022-12-07T05:14:45;100159.75;;;3.72;100.00
17072;BME280;7731;50.720;6.912;2022-12-07T05:17:15;100158.38;;;3.98;100.00
17072;BME280;7731;50.720;6.912;2022-12-07T05:19:46;100157.75;;;3.87;100.00
17072;BME280;7731;50.720;6.912;2022-12-07T05:22:20;100164.91;;;3.69;100.00
17072;BME280;7731;50.720;6.912;2022-12-07T05:24:52;100158.63;;;3.87;100.00
17072;BME280;7731;50.720;6.912;2022-12-07T05:27:22;100162.13;;;3.80;100.00
17072;BME280;7731;50.720;6.912;2022-12-07T05:29:53;100160.53;;;3.76;100.00
17072;BME280;7731;50.720;6.912;2022-12-07T05:32:23;100156.44;;;3.70;100.00
17072;BME280;7731;50.720;6.912;2022-12-07T05:34:54;100164.72;;;3.79;100.00
17072;BME280;7731;50.720;6.912;2022-12-07T05:37:27;100164.13;;;3.67;100.00
17072;BME280;7731;50.720;6.912;2022-12-07T05:39:57;100170.19;;;3.60;100.00
17072;BME280;7731;50.720;6.912;2022-12-07T05:42:28;100163.16;;;3.71;100.00
17072;BME280;7731;50.720;6.912;2022-12-07T05:44:58;100159.94;;;3.63;100.00
17072;BME280;7731;50.720;6.912;2022-12-07T05:47:30;100163.31;;;3.64;100.00
17072;BME280;7731;50.720;6.912;2022-12-07T05:50:00;100165.88;;;3.62;100.00
17072;BME280;7731;50.720;6.912;2022-12-07T05:52:33;100168.75;;;3.47;100.00
17072;BME280;7731;50.720;6.912;2022-12-07T05:55:05;100167.16;;;3.43;100.00
17072;BME280;7731;50.720;6.912;2022-12-07T05:57:35;100160.25;;;3.48;100.00
17072;BME280;7731;50.720;6.912;2022-12-07T06:00:08;100159.44;;;3.47;100.00
17072;BME280;7731;50.720;6.912;2022-12-07T06:02:35;100158.38;;;3.57;100.00
17072;BME280;7731;50.720;6.912;2022-12-07T06:05:07;100159.41;;;3.49;100.00
17072;BME280;7731;50.720;6.912;2022-12-07T06:07:41;100152.16;;;3.30;100.00
17072;BME280;7731;50.720;6.912;2022-12-07T06:10:11;100162.41;;;3.24;100.00
17072;BME280;7731;50.720;6.912;2022-12-07T06:12:42;100160.84;;;3.17;100.00
17072;BME280;7731;50.720;6.912;2022-12-07T06:15:14;100156.84;;;3.03;100.00
17072;BME280;7731;50.720;6.912;2022-12-07T06:17:45;100162.75;;;3.04;100.00
17072;BME280;7731;50.720;6.912;2022-12-07T06:20:15;100167.56;;;3.21;100.00
17072;BME280;7731;50.720;6.912;2022-12-07T06:22:48;100159.16;;;3.16;100.00
17072;BME280;7731;50.720;6.912;2022-12-07T06:25:18;100168.56;;;3.12;100.00
17072;BME280;7731;50.720;6.912;2022-12-07T06:27:48;100171.94;;;3.11;100.00
17072;BME280;7731;50.720;6.912;2022-12-07T06:30:19;100170.28;;;3.09;100.00
17072;BME280;7731;50.720;6.912;2022-12-07T06:32:49;100166.84;;;3.13;100.00
17072;BME280;7731;50.720;6.912;2022-12-07T06:35:20;100170.22;;;3.12;100.00
17072;BME280;7731;50.720;6.912;2022-12-07T06:37:53;100173.56;;;3.15;100.00
17072;BME280;7731;50.720;6.912;2022-12-07T06:40:25;100171.00;;;3.17;100.00
17072;BME280;7731;50.720;6.912;2022-12-07T06:42:56;100169.31;;;3.16;100.00
17072;BME280;7731;50.720;6.912;2022-12-07T06:45:26;100166.63;;;3.25;100.00
17072;BME280;7731;50.720;6.912;2022-12-07T06:47:58;100166.72;;;3.19;100.00
17072;BME280;7731;50.720;6.912;2022-12-07T06:50:28;100167.69;;;3.12;100.00
17072;BME280;7731;50.720;6.912;2022-12-07T06:53:01;100170.94;;;3.20;100.00
17072;BME280;7731;50.720;6.912;2022-12-07T06:55:32;100171.94;;;3.11;100.00
17072;BME280;7731;50.720;6.912;2022-12-07T06:58:03;100166.00;;;3.14;100.00
17072;BME280;7731;50.720;6.912;2022-12-07T07:00:33;100169.31;;;3.16;100.00
17072;BME280;7731;50.720;6.912;2022-12-07T07:03:05;100166.03;;;3.11;100.00
17072;BME280;7731;50.720;6.912;2022-12-07T07:05:35;100171.84;;;3.17;100.00
17072;BME280;7731;50.720;6.912;2022-12-07T07:08:11;100178.41;;;3.29;100.00
17072;BME280;7731;50.720;6.912;2022-12-07T07:10:51;100169.38;;;3.13;100.00
17072;BME280;7731;50.720;6.912;2022-12-07T07:13:23;100175.28;;;3.13;100.00
17072;BME280;7731;50.720;6.912;2022-12-07T07:15:53;100170.47;;;3.45;100.00
17072;BME280;7731;50.720;6.912;2022-12-07T07:18:24;100175.84;;;3.29;100.00
17072;BME280;7731;50.720;6.912;2022-12-07T07:20:55;100181.75;;;3.30;100.00
17072;BME280;7731;50.720;6.912;2022-12-07T07:23:27;100180.28;;;3.19;100.00
17072;BME280;7731;50.720;6.912;2022-12-07T07:25:58;100186.41;;;3.08;100.00
17072;BME280;7731;50.720;6.912;2022-12-07T07:28:28;100182.97;;;3.10;100.00
17072;BME280;7731;50.720;6.912;2022-12-07T07:30:58;100193.03;;;3.15;100.00
17072;BME280;7731;50.720;6.912;2022-12-07T07:33:29;100183.53;;;3.26;100.00
17072;BME280;7731;50.720;6.912;2022-12-07T07:35:59;100190.53;;;3.12;100.00
17072;BME280;7731;50.720;6.912;2022-12-07T07:38:33;100180.31;;;3.18;100.00
17072;BME280;7731;50.720;6.912;2022-12-07T07:41:03;100192.31;;;3.08;100.00
17072;BME280;7731;50.720;6.912;2022-12-07T07:43:33;100190.50;;;3.13;100.00
17072;BME280;7731;50.720;6.912;2022-12-07T07:46:04;100187.91;;;3.19;100.00
17072;BME280;7731;50.720;6.912;2022-12-07T07:48:34;100199.84;;;3.13;100.00
17072;BME280;7731;50.720;6.912;2022-12-07T07:51:06;100191.53;;;3.50;100.00
17072;BME280;7731;50.720;6.912;2022-12-07T07:53:39;100194.38;;;3.34;100.00
17072;BME280;7731;50.720;6.912;2022-12-07T07:56:10;100194.25;;;3.40;100.00
17072;BME280;7731;50.720;6.912;2022-12-07T07:58:40;100195.22;;;3.35;100.00
17072;BME280;7731;50.720;6.912;2022-12-07T08:01:10;100197.69;;;3.39;100.00
17072;BME280;7731;50.720;6.912;2022-12-07T08:03:43;100201.09;;;3.37;100.00
17072;BME280;7731;50.720;6.912;2022-12-07T08:06:14;100200.84;;;3.51;100.00
17072;BME280;7731;50.720;6.912;2022-12-07T08:08:47;100199.16;;;3.50;100.00
17072;BME280;7731;50.720;6.912;2022-12-07T08:11:17;100203.25;;;3.57;100.00
17072;BME280;7731;50.720;6.912;2022-12-07T08:13:48;100202.47;;;3.55;100.00
17072;BME280;7731;50.720;6.912;2022-12-07T08:16:19;100200.88;;;3.49;100.00
17072;BME280;7731;50.720;6.912;2022-12-07T08:18:49;100198.72;;;3.71;100.00
17072;BME280;7731;50.720;6.912;2022-12-07T08:21:20;100189.53;;;3.67;100.00
17072;BME280;7731;50.720;6.912;2022-12-07T08:23:53;100197.19;;;4.05;100.00
17072;BME280;7731;50.720;6.912;2022-12-07T08:26:23;100204.44;;;3.83;100.00
17072;BME280;7731;50.720;6.912;2022-12-07T08:28:55;100195.97;;;3.82;100.00
17072;BME280;7731;50.720;6.912;2022-12-07T08:31:25;100198.59;;;3.78;100.00
17072;BME280;7731;50.720;6.912;2022-12-07T08:33:56;100200.09;;;3.88;100.00
17072;BME280;7731;50.720;6.912;2022-12-07T08:36:27;100208.91;;;3.71;100.00
17072;BME280;7731;50.720;6.912;2022-12-07T08:39:00;100200.59;;;3.63;100.00
17072;BME280;7731;50.720;6.912;2022-12-07T08:41:51;100204.06;;;3.59;100.00
17072;BME280;7731;50.720;6.912;2022-12-07T08:44:22;100203.09;;;3.66;100.00
17072;BME280;7731;50.720;6.912;2022-12-07T08:46:58;100209.44;;;3.87;100.00
17072;BME280;7731;50.720;6.912;2022-12-07T08:49:38;100206.47;;;4.45;100.00
17072;BME280;7731;50.720;6.912;2022-12-07T08:52:09;100213.28;;;4.80;100.00
17072;BME280;7731;50.720;6.912;2022-12-07T08:54:43;100208.91;;;4.50;100.00
17072;BME280;7731;50.720;6.912;2022-12-07T08:57:13;100207.25;;;4.85;100.00
17072;BME280;7731;50.720;6.912;2022-12-07T08:59:44;100199.31;;;4.97;100.00
17072;BME280;7731;50.720;6.912;2022-12-07T09:02:14;100198.88;;;5.47;100.00
17072;BME280;7731;50.720;6.912;2022-12-07T09:04:44;100202.03;;;5.55;100.00
17072;BME280;7731;50.720;6.912;2022-12-07T09:07:14;100207.06;;;5.86;100.00
17072;BME280;7731;50.720;6.912;2022-12-07T09:09:47;100200.19;;;5.60;100.00
17072;BME280;7731;50.720;6.912;2022-12-07T09:12:17;100209.56;;;5.28;100.00
17072;BME280;7731;50.720;6.912;2022-12-07T09:14:47;100203.75;;;5.84;100.00
17072;BME280;7731;50.720;6.912;2022-12-07T09:17:18;100211.81;;;5.06;100.00
17072;BME280;7731;50.720;6.912;2022-12-07T09:19:48;100216.78;;;4.76;100.00
17072;BME280;7731;50.720;6.912;2022-12-07T09:22:18;100212.56;;;4.75;100.00
17072;BME280;7731;50.720;6.912;2022-12-07T09:24:51;100210.50;;;4.90;100.00
17072;BME280;7731;50.720;6.912;2022-12-07T09:27:21;100204.53;;;5.57;100.00
17072;BME280;7731;50.720;6.912;2022-12-07T09:29:52;100202.66;;;5.93;100.00
17072;BME280;7731;50.720;6.912;2022-12-07T09:32:23;100212.00;;;5.93;100.00
17072;BME280;7731;50.720;6.912;2022-12-07T09:34:54;100211.13;;;5.94;100.00
17072;BME280;7731;50.720;6.912;2022-12-07T09:37:26;100219.00;;;5.56;100.00
17072;BME280;7731;50.720;6.912;2022-12-07T09:39:59;100219.91;;;5.53;100.00
17072;BME280;7731;50.720;6.912;2022-12-07T09:42:35;100208.69;;;5.28;100.00
17072;BME280;7731;50.720;6.912;2022-12-07T09:45:15;100213.03;;;5.55;100.00
17072;BME280;7731;50.720;6.912;2022-12-07T09:47:47;100208.88;;;5.53;100.00
17072;BME280;7731;50.720;6.912;2022-12-07T09:50:21;100205.41;;;5.55;100.00
17072;BME280;7731;50.720;6.912;2022-12-07T09:53:06;100212.50;;;5.11;100.00
17072;BME280;7731;50.720;6.912;2022-12-07T09:55:43;100210.63;;;5.19;100.00
17072;BME280;7731;50.720;6.912;2022-12-07T09:58:21;100216.16;;;5.03;100.00
17072;BME280;7731;50.720;6.912;2022-12-07T10:00:57;100209.56;;;4.94;100.00
17072;BME280;7731;50.720;6.912;2022-12-07T10:03:29;100212.25;;;4.88;100.00
17072;BME280;7731;50.720;6.912;2022-12-07T10:05:59;100197.28;;;4.75;100.00
17072;BME280;7731;50.720;6.912;2022-12-07T10:08:30;100194.53;;;5.17;100.00
17072;BME280;7731;50.720;6.912;2022-12-07T10:11:04;100188.91;;;5.69;100.00
17072;BME280;7731;50.720;6.912;2022-12-07T10:13:42;100193.69;;;6.38;100.00
17072;BME280;7731;50.720;6.912;2022-12-07T10:16:37;100189.94;;;5.62;100.00
17072;BME280;7731;50.720;6.912;2022-12-07T10:19:24;100188.53;;;5.81;100.00
17072;BME280;7731;50.720;6.912;2022-12-07T10:22:07;100186.13;;;6.61;100.00
17072;BME280;7731;50.720;6.912;2022-12-07T10:24:43;100178.00;;;7.51;100.00
17072;BME280;7731;50.720;6.912;2022-12-07T10:27:29;100173.19;;;7.89;100.00
17072;BME280;7731;50.720;6.912;2022-12-07T10:30:01;100176.09;;;7.56;100.00
17072;BME280;7731;50.720;6.912;2022-12-07T10:32:37;100175.78;;;7.87;98.09
17072;BME280;7731;50.720;6.912;2022-12-07T10:35:25;100167.44;;;7.37;100.00
17072;BME280;7731;50.720;6.912;2022-12-07T10:37:59;100167.66;;;6.80;100.00
17072;BME280;7731;50.720;6.912;2022-12-07T10:40:35;100155.47;;;8.07;100.00
17072;BME280;7731;50.720;6.912;2022-12-07T10:43:20;100157.22;;;7.60;97.12
17072;BME280;7731;50.720;6.912;2022-12-07T10:46:42;100166.47;;;6.90;100.00
17072;BME280;7731;50.720;6.912;2022-12-07T10:49:45;100160.59;;;6.88;100.00
17072;BME280;7731;50.720;6.912;2022-12-07T10:53:08;100160.72;;;6.32;100.00
17072;BME280;7731;50.720;6.912;2022-12-07T10:56:14;100151.97;;;6.66;100.00
17072;BME280;7731;50.720;6.912;2022-12-07T10:59:21;100157.25;;;6.06;100.00
17072;BME280;7731;50.720;6.912;2022-12-07T11:02:10;100145.28;;;6.61;100.00
17072;BME280;7731;50.720;6.912;2022-12-07T11:05:02;100143.53;;;6.10;100.00
17072;BME280;7731;50.720;6.912;2022-12-07T11:07:51;100144.22;;;6.15;100.00
17072;BME280;7731;50.720;6.912;2022-12-07T11:10:32;100137.25;;;6.47;100.00
17072;BME280;7731;50.720;6.912;2022-12-07T11:13:41;100131.47;;;6.15;100.00
17072;BME280;7731;50.720;6.912;2022-12-07T11:16:36;100131.22;;;5.65;100.00
17072;BME280;7731;50.720;6.912;2022-12-07T11:19:52;100120.16;;;5.94;100.00
17072;BME280;7731;50.720;6.912;2022-12-07T11:22:36;100114.47;;;6.14;100.00
17072;BME280;7731;50.720;6.912;2022-12-07T11:25:39;100105.56;;;7.03;100.00
17072;BME280;7731;50.720;6.912;2022-12-07T11:28:31;100106.16;;;8.87;96.14
17072;BME280;7731;50.720;6.912;2022-12-07T11:31:14;100105.19;;;9.29;87.97
17072;BME280;7731;50.720;6.912;2022-12-07T11:34:06;100096.22;;;10.30;84.79
17072;BME280;7731;50.720;6.912;2022-12-07T11:36:43;100099.09;;;10.06;83.33
17072;BME280;7731;50.720;6.912;2022-12-07T11:39:26;100095.34;;;9.58;83.57
17072;BME280;7731;50.720;6.912;2022-12-07T11:42:09;100107.13;;;8.21;91.11
17072;BME280;7731;50.720;6.912;2022-12-07T11:44:49;100105.28;;;8.67;90.43
17072;BME280;7731;50.720;6.912;2022-12-07T11:47:32;100089.03;;;9.27;87.79
17072;BME280;7731;50.720;6.912;2022-12-07T11:50:25;100098.44;;;8.47;91.84
17072;BME280;7731;50.720;6.912;2022-12-07T11:53:02;100097.75;;;7.99;90.95
17072;BME280;7731;50.720;6.912;2022-12-07T11:55:43;100088.25;;;7.59;96.52
17072;BME280;7731;50.720;6.912;2022-12-07T11:58:44;100087.66;;;7.74;96.59
17072;BME280;7731;50.720;6.912;2022-12-07T12:01:33;100090.13;;;7.54;100.00
17072;BME280;7731;50.720;6.912;2022-12-07T12:04:26;100085.34;;;6.97;97.55
17072;BME280;7731;50.720;6.912;2022-12-07T12:07:00;100080.47;;;7.38;98.62
17072;BME280;7731;50.720;6.912;2022-12-07T12:09:55;100077.34;;;6.32;100.00
17072;BME280;7731;50.720;6.912;2022-12-07T12:12:58;100085.03;;;6.57;100.00
17072;BME280;7731;50.720;6.912;2022-12-07T12:16:12;100076.41;;;7.32;100.00
17072;BME280;7731;50.720;6.912;2022-12-07T12:19:11;100074.19;;;6.51;100.00
17072;BME280;7731;50.720;6.912;2022-12-07T12:21:49;100073.28;;;7.02;100.00
17072;BME280;7731;50.720;6.912;2022-12-07T12:24:32;100071.38;;;6.58;100.00
17072;BME280;7731;50.720;6.912;2022-12-07T12:27:25;100080.94;;;6.00;100.00
17072;BME280;7731;50.720;6.912;2022-12-07T12:30:00;100074.84;;;6.31;100.00
17072;BME280;7731;50.720;6.912;2022-12-07T12:32:39;100075.69;;;6.56;100.00
17072;BME280;7731;50.720;6.912;2022-12-07T12:35:31;100073.03;;;5.79;100.00
17072;BME280;7731;50.720;6.912;2022-12-07T12:38:30;100067.94;;;5.79;100.00
17072;BME280;7731;50.720;6.912;2022-12-07T12:41:04;100070.06;;;5.93;100.00
17072;BME280;7731;50.720;6.912;2022-12-07T12:43:49;100066.34;;;5.75;100.00
17072;BME280;7731;50.720;6.912;2022-12-07T12:46:52;100062.09;;;5.76;100.00
17072;BME280;7731;50.720;6.912;2022-12-07T12:50:13;100056.75;;;5.83;100.00
17072;BME280;7731;50.720;6.912;2022-12-07T12:53:16;100050.19;;;6.30;100.00
17072;BME280;7731;50.720;6.912;2022-12-07T12:56:31;100055.38;;;6.53;100.00
17072;BME280;7731;50.720;6.912;2022-12-07T12:59:25;100057.09;;;5.72;100.00
17072;BME280;7731;50.720;6.912;2022-12-07T13:02:19;100057.09;;;5.72;100.00
17072;BME280;7731;50.720;6.912;2022-12-07T13:04:57;100059.47;;;5.50;100.00
17072;BME280;7731;50.720;6.912;2022-12-07T13:07:52;100059.59;;;5.74;100.00
17072;BME280;7731;50.720;6.912;2022-12-07T13:10:41;100056.34;;;5.97;100.00
17072;BME280;7731;50.720;6.912;2022-12-07T13:13:36;100043.78;;;5.63;100.00
17072;BME280;7731;50.720;6.912;2022-12-07T13:16:42;100049.16;;;5.53;100.00
17072;BME280;7731;50.720;6.912;2022-12-07T13:22:46;100045.53;;;5.89;100.00
17072;BME280;7731;50.720;6.912;2022-12-07T13:25:38;100049.72;;;5.63;100.00
17072;BME280;7731;50.720;6.912;2022-12-07T13:28:17;100035.19;;;5.67;100.00
17072;BME280;7731;50.720;6.912;2022-12-07T13:31:11;100037.31;;;6.07;100.00
17072;BME280;7731;50.720;6.912;2022-12-07T13:33:44;100028.25;;;6.25;100.00
17072;BME280;7731;50.720;6.912;2022-12-07T13:36:33;100027.31;;;6.53;100.00
17072;BME280;7731;50.720;6.912;2022-12-07T13:39:19;100034.25;;;6.50;100.00
17072;BME280;7731;50.720;6.912;2022-12-07T13:41:54;100026.31;;;6.07;100.00
17072;BME280;7731;50.720;6.912;2022-12-07T13:44:27;100024.84;;;5.71;100.00
17072;BME280;7731;50.720;6.912;2022-12-07T13:47:15;100021.41;;;5.72;100.00
17072;BME280;7731;50.720;6.912;2022-12-07T13:49:51;100024.47;;;5.55;100.00
17072;BME280;7731;50.720;6.912;2022-12-07T13:52:25;100018.53;;;5.55;100.00
17072;BME280;7731;50.720;6.912;2022-12-07T13:54:58;100015.75;;;5.63;100.00
17072;BME280;7731;50.720;6.912;2022-12-07T13:57:32;100016.22;;;5.47;100.00